AAY173 KILM-KTLH
Flight info
| Callsign | AAY173 |
|---|---|
| Flight time | 1h 17m |
| Altitude | 38000 |
| Route | CHS SAV |
| Aircraft | A20N/M-SDE2E3FGHIRWXY/LB1 |
Departure
| Time | 2026-05-07 12:56 |
|---|---|
| Airport | Wilmington International Airport (KILM) |
Arrival
| Time | 2026-05-07 14:13 |
|---|---|
| Airport | Tallahassee International Airport (KTLH) |
| Time | Latitude | Longitude | Altitude | Speed | Heading |
|---|---|---|---|---|---|
| 2026-05-07 12:27 | 34.26695 | -77.90851 | 40 ft | 0 kts | 238° |
| 2026-05-07 12:48 | 34.26699 | -77.90844 | 39 ft | 2 kts | 234° |
| 2026-05-07 12:48 | 34.26712 | -77.90827 | 36 ft | 3 kts | 204° |
| 2026-05-07 12:48 | 34.26730 | -77.90823 | 37 ft | 3 kts | 166° |
| 2026-05-07 12:49 | 34.26748 | -77.90831 | 38 ft | 3 kts | 156° |
| 2026-05-07 12:49 | 34.26755 | -77.90835 | 37 ft | 0 kts | 158° |
| 2026-05-07 12:51 | 34.26753 | -77.90833 | 37 ft | 0 kts | 149° |
| 2026-05-07 12:51 | 34.26753 | -77.90822 | 38 ft | 3 kts | 70° |
| 2026-05-07 12:52 | 34.26783 | -77.90784 | 40 ft | 10 kts | 50° |
| 2026-05-07 12:52 | 34.26800 | -77.90685 | 40 ft | 16 kts | 89° |
| 2026-05-07 12:52 | 34.26802 | -77.90551 | 36 ft | 16 kts | 89° |
| 2026-05-07 12:52 | 34.26866 | -77.90409 | 31 ft | 18 kts | 50° |
| 2026-05-07 12:53 | 34.26952 | -77.90276 | 31 ft | 23 kts | 51° |
| 2026-05-07 12:53 | 34.27065 | -77.90106 | 32 ft | 26 kts | 53° |
| 2026-05-07 12:53 | 34.27172 | -77.89950 | 33 ft | 24 kts | 48° |
| 2026-05-07 12:53 | 34.27273 | -77.89813 | 35 ft | 20 kts | 49° |
| 2026-05-07 12:54 | 34.27383 | -77.89685 | 33 ft | 24 kts | 21° |
| 2026-05-07 12:54 | 34.27516 | -77.89582 | 32 ft | 24 kts | 49° |
| 2026-05-07 12:54 | 34.27629 | -77.89426 | 29 ft | 24 kts | 49° |
| 2026-05-07 12:54 | 34.27732 | -77.89285 | 29 ft | 17 kts | 47° |
| 2026-05-07 12:55 | 34.27732 | -77.89168 | 28 ft | 16 kts | 136° |
| 2026-05-07 12:55 | 34.27648 | -77.89091 | 29 ft | 15 kts | 166° |
| 2026-05-07 12:55 | 34.27558 | -77.89174 | 29 ft | 33 kts | 228° |
| 2026-05-07 12:55 | 34.27242 | -77.89607 | 34 ft | 102 kts | 228° |
| 2026-05-07 12:56 | 34.26633 | -77.90426 | 42 ft | 155 kts | 229° |
| 2026-05-07 12:56 | 34.26174 | -77.91054 | 455 ft | 147 kts | 229° |
| 2026-05-07 12:56 | 34.25529 | -77.91941 | 1191 ft | 134 kts | 230° |
| 2026-05-07 12:56 | 34.24933 | -77.92755 | 1934 ft | 126 kts | 232° |
| 2026-05-07 12:57 | 34.24385 | -77.93555 | 2548 ft | 123 kts | 233° |
| 2026-05-07 12:57 | 34.23884 | -77.94402 | 3103 ft | 130 kts | 235° |
| 2026-05-07 12:57 | 34.23275 | -77.95351 | 3520 ft | 156 kts | 231° |
| 2026-05-07 12:57 | 34.22526 | -77.96433 | 3937 ft | 177 kts | 230° |
| 2026-05-07 12:58 | 34.21709 | -77.97597 | 4528 ft | 187 kts | 230° |
| 2026-05-07 12:58 | 34.20843 | -77.98843 | 5102 ft | 199 kts | 230° |
| 2026-05-07 12:58 | 34.19941 | -78.00146 | 5752 ft | 206 kts | 230° |
| 2026-05-07 12:58 | 34.19016 | -78.01485 | 6459 ft | 209 kts | 230° |
| 2026-05-07 12:59 | 34.18072 | -78.02849 | 7145 ft | 213 kts | 230° |
| 2026-05-07 12:59 | 34.17113 | -78.04222 | 7867 ft | 216 kts | 230° |
| 2026-05-07 12:59 | 34.16097 | -78.05670 | 8369 ft | 235 kts | 230° |
| 2026-05-07 12:59 | 34.15018 | -78.07201 | 9123 ft | 243 kts | 231° |
| 2026-05-07 13:00 | 34.13912 | -78.08728 | 10161 ft | 241 kts | 230° |
| 2026-05-07 13:00 | 34.12770 | -78.10285 | 10764 ft | 258 kts | 231° |
| 2026-05-07 13:00 | 34.11527 | -78.11980 | 11157 ft | 279 kts | 231° |
| 2026-05-07 13:00 | 34.10206 | -78.13779 | 11729 ft | 293 kts | 230° |
| 2026-05-07 13:01 | 34.08848 | -78.15626 | 12417 ft | 302 kts | 231° |
| 2026-05-07 13:01 | 34.07429 | -78.17542 | 13146 ft | 311 kts | 231° |
| 2026-05-07 13:01 | 34.05970 | -78.19508 | 13899 ft | 318 kts | 231° |
| 2026-05-07 13:01 | 34.04559 | -78.21586 | 14600 ft | 323 kts | 235° |
| 2026-05-07 13:02 | 34.03180 | -78.23733 | 15387 ft | 325 kts | 236° |
| 2026-05-07 13:02 | 34.01802 | -78.25907 | 16175 ft | 327 kts | 237° |
| 2026-05-07 13:02 | 34.00426 | -78.28106 | 16950 ft | 330 kts | 238° |
| 2026-05-07 13:02 | 33.99045 | -78.30334 | 17700 ft | 334 kts | 239° |
| 2026-05-07 13:03 | 33.97653 | -78.32589 | 18414 ft | 337 kts | 239° |
| 2026-05-07 13:03 | 33.96248 | -78.34868 | 19043 ft | 340 kts | 239° |
| 2026-05-07 13:03 | 33.94830 | -78.37169 | 19663 ft | 344 kts | 239° |
| 2026-05-07 13:03 | 33.93394 | -78.39495 | 20270 ft | 348 kts | 238° |
| 2026-05-07 13:04 | 33.91941 | -78.41847 | 20812 ft | 353 kts | 237° |
| 2026-05-07 13:04 | 33.90461 | -78.44242 | 21300 ft | 360 kts | 237° |
| 2026-05-07 13:04 | 33.88956 | -78.46670 | 21890 ft | 363 kts | 237° |
| 2026-05-07 13:04 | 33.87436 | -78.49118 | 22476 ft | 367 kts | 236° |
| 2026-05-07 13:05 | 33.85902 | -78.51587 | 23045 ft | 370 kts | 236° |
| 2026-05-07 13:05 | 33.84351 | -78.54082 | 23580 ft | 374 kts | 236° |
| 2026-05-07 13:05 | 33.82784 | -78.56602 | 24042 ft | 377 kts | 236° |
| 2026-05-07 13:05 | 33.81211 | -78.59129 | 24533 ft | 378 kts | 236° |
| 2026-05-07 13:06 | 33.79632 | -78.61666 | 25024 ft | 380 kts | 236° |
| 2026-05-07 13:06 | 33.78042 | -78.64218 | 25508 ft | 382 kts | 236° |
| 2026-05-07 13:06 | 33.76451 | -78.66771 | 25985 ft | 383 kts | 236° |
| 2026-05-07 13:06 | 33.74847 | -78.69343 | 26515 ft | 384 kts | 236° |
| 2026-05-07 13:07 | 33.73243 | -78.71914 | 27017 ft | 385 kts | 236° |
| 2026-05-07 13:07 | 33.71635 | -78.74488 | 27439 ft | 387 kts | 236° |
| 2026-05-07 13:07 | 33.70014 | -78.77084 | 27795 ft | 390 kts | 237° |
| 2026-05-07 13:07 | 33.68382 | -78.79693 | 28247 ft | 390 kts | 237° |
| 2026-05-07 13:08 | 33.66771 | -78.82268 | 28662 ft | 392 kts | 237° |
| 2026-05-07 13:08 | 33.65107 | -78.84926 | 29052 ft | 394 kts | 237° |
| 2026-05-07 13:08 | 33.63454 | -78.87563 | 29441 ft | 396 kts | 237° |
| 2026-05-07 13:08 | 33.61793 | -78.90212 | 29832 ft | 398 kts | 237° |
| 2026-05-07 13:09 | 33.60124 | -78.92872 | 30194 ft | 400 kts | 237° |
| 2026-05-07 13:09 | 33.58448 | -78.95541 | 30494 ft | 402 kts | 237° |
| 2026-05-07 13:09 | 33.56782 | -78.98191 | 30803 ft | 404 kts | 237° |
| 2026-05-07 13:09 | 33.55090 | -79.00882 | 31123 ft | 406 kts | 237° |
| 2026-05-07 13:10 | 33.53385 | -79.03589 | 31451 ft | 407 kts | 237° |
| 2026-05-07 13:10 | 33.51677 | -79.06301 | 31844 ft | 407 kts | 237° |
| 2026-05-07 13:10 | 33.49975 | -79.08998 | 32285 ft | 405 kts | 237° |
| 2026-05-07 13:10 | 33.48278 | -79.11685 | 32764 ft | 403 kts | 237° |
| 2026-05-07 13:11 | 33.46591 | -79.14353 | 33188 ft | 401 kts | 238° |
| 2026-05-07 13:11 | 33.44912 | -79.17010 | 33564 ft | 400 kts | 238° |
| 2026-05-07 13:11 | 33.43238 | -79.19658 | 33984 ft | 398 kts | 238° |
| 2026-05-07 13:11 | 33.41567 | -79.22299 | 34355 ft | 396 kts | 238° |
| 2026-05-07 13:12 | 33.39911 | -79.24915 | 34724 ft | 394 kts | 238° |
| 2026-05-07 13:12 | 33.38263 | -79.27516 | 35103 ft | 391 kts | 238° |
| 2026-05-07 13:12 | 33.36623 | -79.30101 | 35461 ft | 389 kts | 238° |
| 2026-05-07 13:12 | 33.34989 | -79.32676 | 35807 ft | 387 kts | 239° |
| 2026-05-07 13:13 | 33.33365 | -79.35236 | 36134 ft | 386 kts | 239° |
| 2026-05-07 13:13 | 33.31744 | -79.37786 | 36437 ft | 385 kts | 239° |
| 2026-05-07 13:13 | 33.30130 | -79.40327 | 36750 ft | 383 kts | 239° |
| 2026-05-07 13:13 | 33.28518 | -79.42861 | 37040 ft | 382 kts | 239° |
| 2026-05-07 13:14 | 33.26913 | -79.45383 | 37309 ft | 381 kts | 239° |
| 2026-05-07 13:14 | 33.25309 | -79.47903 | 37582 ft | 380 kts | 239° |
| 2026-05-07 13:14 | 33.23708 | -79.50414 | 37858 ft | 379 kts | 239° |
| 2026-05-07 13:14 | 33.22109 | -79.52922 | 37956 ft | 381 kts | 239° |
| 2026-05-07 13:15 | 33.18901 | -79.57947 | 37968 ft | 379 kts | 239° |
| 2026-05-07 13:15 | 33.15702 | -79.62948 | 37969 ft | 379 kts | 239° |
| 2026-05-07 13:16 | 33.12502 | -79.67947 | 37973 ft | 379 kts | 239° |
| 2026-05-07 13:16 | 33.09300 | -79.72940 | 37946 ft | 379 kts | 239° |
| 2026-05-07 13:17 | 33.06100 | -79.77924 | 37936 ft | 379 kts | 239° |
| 2026-05-07 13:17 | 33.02892 | -79.82912 | 37940 ft | 379 kts | 239° |
| 2026-05-07 13:18 | 32.99689 | -79.87887 | 37940 ft | 378 kts | 239° |
| 2026-05-07 13:18 | 32.96487 | -79.92854 | 37923 ft | 378 kts | 239° |
| 2026-05-07 13:19 | 32.93281 | -79.97821 | 37917 ft | 378 kts | 239° |
| 2026-05-07 13:19 | 32.90095 | -80.02751 | 37916 ft | 378 kts | 239° |
| 2026-05-07 13:20 | 32.86912 | -80.07726 | 37914 ft | 378 kts | 239° |
| 2026-05-07 13:20 | 32.83746 | -80.12716 | 37915 ft | 378 kts | 239° |
| 2026-05-07 13:21 | 32.80585 | -80.17696 | 37921 ft | 377 kts | 239° |
| 2026-05-07 13:21 | 32.77422 | -80.22666 | 37913 ft | 376 kts | 238° |
| 2026-05-07 13:22 | 32.74246 | -80.27646 | 37966 ft | 381 kts | 238° |
| 2026-05-07 13:22 | 32.71040 | -80.32666 | 37965 ft | 382 kts | 238° |
| 2026-05-07 13:23 | 32.67827 | -80.37687 | 37980 ft | 382 kts | 238° |
| 2026-05-07 13:23 | 32.64613 | -80.42705 | 37987 ft | 382 kts | 238° |
| 2026-05-07 13:24 | 32.61398 | -80.47717 | 37979 ft | 382 kts | 238° |
| 2026-05-07 13:24 | 32.58183 | -80.52724 | 37989 ft | 382 kts | 238° |
| 2026-05-07 13:25 | 32.54963 | -80.57732 | 37983 ft | 381 kts | 238° |
| 2026-05-07 13:25 | 32.51744 | -80.62731 | 37969 ft | 382 kts | 238° |
| 2026-05-07 13:26 | 32.48519 | -80.67733 | 37971 ft | 382 kts | 238° |
| 2026-05-07 13:26 | 32.45291 | -80.72733 | 37971 ft | 382 kts | 238° |
| 2026-05-07 13:27 | 32.42083 | -80.77697 | 37971 ft | 382 kts | 238° |
| 2026-05-07 13:27 | 32.38849 | -80.82693 | 37969 ft | 382 kts | 238° |
| 2026-05-07 13:28 | 32.35617 | -80.87680 | 37972 ft | 382 kts | 238° |
| 2026-05-07 13:28 | 32.32379 | -80.92668 | 37996 ft | 382 kts | 238° |
| 2026-05-07 13:29 | 32.29145 | -80.97644 | 37973 ft | 381 kts | 238° |
| 2026-05-07 13:29 | 32.25911 | -81.02615 | 38008 ft | 382 kts | 238° |
| 2026-05-07 13:30 | 32.22668 | -81.07593 | 38013 ft | 382 kts | 238° |
| 2026-05-07 13:30 | 32.19420 | -81.12571 | 38036 ft | 382 kts | 238° |
| 2026-05-07 13:31 | 32.16171 | -81.17544 | 38034 ft | 382 kts | 238° |
| 2026-05-07 13:31 | 32.13022 | -81.22532 | 38035 ft | 381 kts | 240° |
| 2026-05-07 13:32 | 32.09933 | -81.27611 | 38038 ft | 381 kts | 240° |
| 2026-05-07 13:32 | 32.06845 | -81.32684 | 38030 ft | 380 kts | 240° |
| 2026-05-07 13:33 | 32.03755 | -81.37750 | 38027 ft | 381 kts | 240° |
| 2026-05-07 13:33 | 32.00661 | -81.42816 | 38026 ft | 381 kts | 240° |
| 2026-05-07 13:34 | 31.96013 | -81.50411 | 38036 ft | 381 kts | 240° |
| 2026-05-07 13:35 | 31.92912 | -81.55470 | 38033 ft | 381 kts | 239° |
| 2026-05-07 13:35 | 31.89807 | -81.60529 | 38026 ft | 381 kts | 239° |
| 2026-05-07 13:36 | 31.86703 | -81.65579 | 38026 ft | 381 kts | 239° |
| 2026-05-07 13:36 | 31.83598 | -81.70625 | 38018 ft | 381 kts | 239° |
| 2026-05-07 13:37 | 31.80490 | -81.75668 | 37980 ft | 381 kts | 239° |
| 2026-05-07 13:37 | 31.77369 | -81.80729 | 38023 ft | 384 kts | 239° |
| 2026-05-07 13:38 | 31.74242 | -81.85790 | 38020 ft | 385 kts | 239° |
| 2026-05-07 13:38 | 31.71091 | -81.90884 | 38020 ft | 386 kts | 239° |
| 2026-05-07 13:39 | 31.67935 | -81.95979 | 38024 ft | 386 kts | 239° |
| 2026-05-07 13:39 | 31.64781 | -82.01063 | 38020 ft | 385 kts | 239° |
| 2026-05-07 13:40 | 31.61622 | -82.06149 | 38042 ft | 385 kts | 239° |
| 2026-05-07 13:40 | 31.58461 | -82.11231 | 38040 ft | 385 kts | 239° |
| 2026-05-07 13:41 | 31.55300 | -82.16307 | 38015 ft | 386 kts | 239° |
| 2026-05-07 13:41 | 31.52120 | -82.21410 | 38031 ft | 389 kts | 239° |
| 2026-05-07 13:42 | 31.48918 | -82.26538 | 38031 ft | 390 kts | 239° |
| 2026-05-07 13:42 | 31.45711 | -82.31666 | 38036 ft | 390 kts | 239° |
| 2026-05-07 13:43 | 31.42502 | -82.36792 | 38038 ft | 390 kts | 239° |
| 2026-05-07 13:43 | 31.39293 | -82.41911 | 38005 ft | 391 kts | 239° |
| 2026-05-07 13:43 | 31.37677 | -82.44489 | 37404 ft | 395 kts | 238° |
| 2026-05-07 13:44 | 31.36037 | -82.47104 | 36474 ft | 403 kts | 238° |
| 2026-05-07 13:44 | 31.34363 | -82.49773 | 35613 ft | 410 kts | 238° |
| 2026-05-07 13:44 | 31.32663 | -82.52477 | 34796 ft | 415 kts | 238° |
| 2026-05-07 13:44 | 31.30944 | -82.55208 | 34058 ft | 419 kts | 238° |
| 2026-05-07 13:45 | 31.29210 | -82.57959 | 33286 ft | 420 kts | 238° |
| 2026-05-07 13:45 | 31.28064 | -82.59776 | 32895 ft | 419 kts | 238° |
| 2026-05-07 13:45 | 31.26338 | -82.62511 | 32368 ft | 416 kts | 238° |
| 2026-05-07 13:45 | 31.24083 | -82.66079 | 31796 ft | 408 kts | 238° |
| 2026-05-07 13:46 | 31.22410 | -82.68728 | 31371 ft | 403 kts | 238° |
| 2026-05-07 13:46 | 31.20756 | -82.71344 | 30948 ft | 398 kts | 238° |
| 2026-05-07 13:46 | 31.19122 | -82.73928 | 30541 ft | 393 kts | 238° |
| 2026-05-07 13:46 | 31.18030 | -82.75654 | 30251 ft | 390 kts | 238° |
| 2026-05-07 13:47 | 31.16424 | -82.78192 | 29794 ft | 386 kts | 238° |
| 2026-05-07 13:47 | 31.14841 | -82.80691 | 29366 ft | 380 kts | 238° |
| 2026-05-07 13:47 | 31.13280 | -82.83154 | 28954 ft | 375 kts | 238° |
| 2026-05-07 13:47 | 31.11739 | -82.85584 | 28556 ft | 370 kts | 238° |
| 2026-05-07 13:48 | 31.10221 | -82.87976 | 28139 ft | 365 kts | 238° |
| 2026-05-07 13:48 | 31.08720 | -82.90340 | 27743 ft | 360 kts | 238° |
| 2026-05-07 13:48 | 31.07237 | -82.92675 | 27339 ft | 356 kts | 238° |
| 2026-05-07 13:48 | 31.05770 | -82.94984 | 26937 ft | 352 kts | 238° |
| 2026-05-07 13:49 | 31.04320 | -82.97263 | 26528 ft | 348 kts | 239° |
| 2026-05-07 13:49 | 31.02887 | -82.99513 | 26137 ft | 343 kts | 239° |
| 2026-05-07 13:49 | 31.01471 | -83.01738 | 25760 ft | 340 kts | 239° |
| 2026-05-07 13:49 | 31.00071 | -83.03936 | 25383 ft | 337 kts | 239° |
| 2026-05-07 13:50 | 30.98676 | -83.06125 | 25000 ft | 335 kts | 239° |
| 2026-05-07 13:50 | 30.97295 | -83.08292 | 24624 ft | 332 kts | 239° |
| 2026-05-07 13:50 | 30.95920 | -83.10447 | 24247 ft | 330 kts | 239° |
| 2026-05-07 13:50 | 30.94556 | -83.12583 | 23869 ft | 328 kts | 239° |
| 2026-05-07 13:51 | 30.93198 | -83.14709 | 23495 ft | 326 kts | 239° |
| 2026-05-07 13:51 | 30.91871 | -83.16785 | 23084 ft | 322 kts | 239° |
| 2026-05-07 13:51 | 30.90540 | -83.18866 | 22715 ft | 318 kts | 239° |
| 2026-05-07 13:51 | 30.89226 | -83.20918 | 22362 ft | 314 kts | 239° |
| 2026-05-07 13:52 | 30.87928 | -83.22945 | 22008 ft | 310 kts | 239° |
| 2026-05-07 13:52 | 30.86628 | -83.24975 | 21652 ft | 307 kts | 239° |
| 2026-05-07 13:52 | 30.85377 | -83.26927 | 21303 ft | 303 kts | 239° |
| 2026-05-07 13:52 | 30.84124 | -83.28883 | 20951 ft | 300 kts | 239° |
| 2026-05-07 13:53 | 30.82880 | -83.30821 | 20605 ft | 297 kts | 239° |
| 2026-05-07 13:53 | 30.81648 | -83.32742 | 20258 ft | 295 kts | 238° |
| 2026-05-07 13:53 | 30.80427 | -83.34644 | 19916 ft | 292 kts | 238° |
| 2026-05-07 13:53 | 30.79216 | -83.36530 | 19565 ft | 290 kts | 238° |
| 2026-05-07 13:54 | 30.78014 | -83.38400 | 19207 ft | 288 kts | 238° |
| 2026-05-07 13:54 | 30.76821 | -83.40255 | 18882 ft | 285 kts | 238° |
| 2026-05-07 13:54 | 30.75637 | -83.42097 | 18547 ft | 284 kts | 238° |
| 2026-05-07 13:54 | 30.74456 | -83.43931 | 18190 ft | 282 kts | 238° |
| 2026-05-07 13:55 | 30.73288 | -83.45745 | 17847 ft | 279 kts | 238° |
| 2026-05-07 13:55 | 30.72130 | -83.47542 | 17516 ft | 276 kts | 238° |
| 2026-05-07 13:55 | 30.70987 | -83.49316 | 17195 ft | 273 kts | 238° |
| 2026-05-07 13:55 | 30.69854 | -83.51074 | 16877 ft | 271 kts | 238° |
| 2026-05-07 13:56 | 30.68724 | -83.52826 | 16557 ft | 270 kts | 237° |
| 2026-05-07 13:56 | 30.67602 | -83.54566 | 16234 ft | 269 kts | 238° |
| 2026-05-07 13:56 | 30.66480 | -83.56303 | 15907 ft | 268 kts | 237° |
| 2026-05-07 13:56 | 30.65365 | -83.58031 | 15591 ft | 267 kts | 237° |
| 2026-05-07 13:57 | 30.64253 | -83.59751 | 15272 ft | 266 kts | 237° |
| 2026-05-07 13:57 | 30.63144 | -83.61467 | 14947 ft | 265 kts | 237° |
| 2026-05-07 13:57 | 30.62040 | -83.63175 | 14629 ft | 264 kts | 237° |
| 2026-05-07 13:57 | 30.60935 | -83.64882 | 14306 ft | 264 kts | 237° |
| 2026-05-07 13:58 | 30.59834 | -83.66583 | 13942 ft | 263 kts | 236° |
| 2026-05-07 13:58 | 30.58739 | -83.68274 | 13606 ft | 261 kts | 236° |
| 2026-05-07 13:58 | 30.57648 | -83.69958 | 13289 ft | 260 kts | 236° |
| 2026-05-07 13:58 | 30.56560 | -83.71636 | 12985 ft | 260 kts | 236° |
| 2026-05-07 13:59 | 30.55474 | -83.73311 | 12678 ft | 260 kts | 236° |
| 2026-05-07 13:59 | 30.54389 | -83.74983 | 12363 ft | 259 kts | 236° |
| 2026-05-07 13:59 | 30.53305 | -83.76654 | 12048 ft | 259 kts | 236° |
| 2026-05-07 13:59 | 30.52225 | -83.78316 | 11736 ft | 258 kts | 236° |
| 2026-05-07 14:00 | 30.51148 | -83.79976 | 11421 ft | 257 kts | 236° |
| 2026-05-07 14:00 | 30.50073 | -83.81630 | 11105 ft | 256 kts | 236° |
| 2026-05-07 14:00 | 30.49004 | -83.83274 | 10803 ft | 255 kts | 236° |
| 2026-05-07 14:00 | 30.47939 | -83.84911 | 10555 ft | 251 kts | 236° |
| 2026-05-07 14:01 | 30.46914 | -83.86484 | 10356 ft | 246 kts | 236° |
| 2026-05-07 14:01 | 30.45883 | -83.88069 | 10064 ft | 246 kts | 236° |
| 2026-05-07 14:01 | 30.44855 | -83.89649 | 9762 ft | 245 kts | 236° |
| 2026-05-07 14:01 | 30.43832 | -83.91219 | 9466 ft | 243 kts | 236° |
| 2026-05-07 14:02 | 30.42820 | -83.92771 | 9184 ft | 240 kts | 236° |
| 2026-05-07 14:02 | 30.41817 | -83.94310 | 8905 ft | 239 kts | 236° |
| 2026-05-07 14:02 | 30.40818 | -83.95844 | 8629 ft | 238 kts | 236° |
| 2026-05-07 14:02 | 30.39822 | -83.97371 | 8359 ft | 237 kts | 236° |
| 2026-05-07 14:03 | 30.38827 | -83.98895 | 8091 ft | 237 kts | 235° |
| 2026-05-07 14:03 | 30.37836 | -84.00414 | 7808 ft | 236 kts | 235° |
| 2026-05-07 14:03 | 30.36849 | -84.01927 | 7540 ft | 235 kts | 235° |
| 2026-05-07 14:03 | 30.35864 | -84.03433 | 7278 ft | 234 kts | 235° |
| 2026-05-07 14:04 | 30.34884 | -84.04933 | 7009 ft | 233 kts | 234° |
| 2026-05-07 14:04 | 30.33910 | -84.06423 | 6745 ft | 232 kts | 234° |
| 2026-05-07 14:04 | 30.32938 | -84.07908 | 6472 ft | 231 kts | 234° |
| 2026-05-07 14:04 | 30.31971 | -84.09386 | 6196 ft | 230 kts | 234° |
| 2026-05-07 14:05 | 30.31008 | -84.10858 | 5930 ft | 228 kts | 234° |
| 2026-05-07 14:05 | 30.30050 | -84.12321 | 5678 ft | 228 kts | 234° |
| 2026-05-07 14:05 | 30.29094 | -84.13780 | 5406 ft | 227 kts | 234° |
| 2026-05-07 14:05 | 30.28155 | -84.15213 | 5159 ft | 226 kts | 234° |
| 2026-05-07 14:06 | 30.27210 | -84.16655 | 4898 ft | 224 kts | 233° |
| 2026-05-07 14:06 | 30.26269 | -84.18090 | 4625 ft | 224 kts | 233° |
| 2026-05-07 14:06 | 30.25321 | -84.19536 | 4377 ft | 226 kts | 233° |
| 2026-05-07 14:06 | 30.24368 | -84.20987 | 4119 ft | 227 kts | 233° |
| 2026-05-07 14:07 | 30.23416 | -84.22437 | 3853 ft | 225 kts | 232° |
| 2026-05-07 14:07 | 30.22469 | -84.23880 | 3591 ft | 225 kts | 232° |
| 2026-05-07 14:07 | 30.21521 | -84.25323 | 3335 ft | 226 kts | 232° |
| 2026-05-07 14:07 | 30.20573 | -84.26766 | 3070 ft | 225 kts | 232° |
| 2026-05-07 14:08 | 30.19622 | -84.28211 | 2819 ft | 227 kts | 233° |
| 2026-05-07 14:08 | 30.18800 | -84.29763 | 2547 ft | 226 kts | 246° |
| 2026-05-07 14:08 | 30.18485 | -84.31530 | 2303 ft | 226 kts | 269° |
| 2026-05-07 14:08 | 30.18835 | -84.33300 | 2039 ft | 229 kts | 292° |
| 2026-05-07 14:09 | 30.19811 | -84.34735 | 1862 ft | 228 kts | 317° |
| 2026-05-07 14:09 | 30.21210 | -84.35564 | 1683 ft | 228 kts | 342° |
| 2026-05-07 14:09 | 30.22783 | -84.35768 | 1582 ft | 226 kts | 355° |
| 2026-05-07 14:09 | 30.24344 | -84.35742 | 1577 ft | 224 kts | 356° |
| 2026-05-07 14:10 | 30.25904 | -84.35747 | 1603 ft | 221 kts | 355° |
| 2026-05-07 14:10 | 30.27379 | -84.35757 | 1560 ft | 203 kts | 355° |
| 2026-05-07 14:10 | 30.28717 | -84.35768 | 1561 ft | 183 kts | 355° |
| 2026-05-07 14:10 | 30.29952 | -84.35779 | 1563 ft | 174 kts | 353° |
| 2026-05-07 14:11 | 30.31143 | -84.35795 | 1573 ft | 175 kts | 355° |
| 2026-05-07 14:11 | 30.32358 | -84.35809 | 1460 ft | 174 kts | 356° |
| 2026-05-07 14:11 | 30.33584 | -84.35821 | 1209 ft | 178 kts | 353° |
| 2026-05-07 14:11 | 30.34812 | -84.35832 | 957 ft | 174 kts | 353° |
| 2026-05-07 14:12 | 30.35993 | -84.35850 | 769 ft | 166 kts | 355° |
| 2026-05-07 14:12 | 30.37129 | -84.35878 | 489 ft | 159 kts | 359° |
| 2026-05-07 14:12 | 30.38201 | -84.35871 | 326 ft | 151 kts | 0° |
| 2026-05-07 14:12 | 30.39231 | -84.35879 | 134 ft | 145 kts | 0° |
| 2026-05-07 14:13 | 30.40171 | -84.35889 | 67 ft | 115 kts | 360° |
| 2026-05-07 14:13 | 30.40799 | -84.35895 | 64 ft | 70 kts | 359° |
| 2026-05-07 14:13 | 30.41113 | -84.35891 | 66 ft | 23 kts | 25° |
| 2026-05-07 14:13 | 30.41132 | -84.35776 | 62 ft | 10 kts | 147° |
| 2026-05-07 14:14 | 30.41070 | -84.35769 | 64 ft | 9 kts | 180° |
| 2026-05-07 14:14 | 30.41003 | -84.35768 | 66 ft | 10 kts | 179° |
| 2026-05-07 14:14 | 30.40933 | -84.35767 | 67 ft | 10 kts | 179° |
| 2026-05-07 14:14 | 30.40866 | -84.35765 | 68 ft | 9 kts | 179° |
| 2026-05-07 14:15 | 30.40807 | -84.35764 | 69 ft | 8 kts | 179° |
| 2026-05-07 14:15 | 30.40752 | -84.35764 | 69 ft | 8 kts | 180° |
| 2026-05-07 14:15 | 30.40694 | -84.35764 | 69 ft | 9 kts | 179° |
| 2026-05-07 14:15 | 30.40623 | -84.35762 | 65 ft | 11 kts | 178° |
| 2026-05-07 14:16 | 30.40539 | -84.35762 | 62 ft | 13 kts | 180° |
| 2026-05-07 14:16 | 30.40449 | -84.35762 | 62 ft | 13 kts | 180° |
| 2026-05-07 14:16 | 30.40363 | -84.35761 | 66 ft | 12 kts | 180° |
| 2026-05-07 14:16 | 30.40280 | -84.35761 | 65 ft | 12 kts | 180° |
| 2026-05-07 14:17 | 30.40193 | -84.35760 | 66 ft | 13 kts | 178° |
| 2026-05-07 14:17 | 30.40102 | -84.35756 | 67 ft | 13 kts | 178° |
| 2026-05-07 14:17 | 30.40019 | -84.35757 | 67 ft | 11 kts | 181° |
| 2026-05-07 14:17 | 30.39953 | -84.35759 | 69 ft | 8 kts | 181° |
| 2026-05-07 14:18 | 30.39899 | -84.35759 | 68 ft | 10 kts | 179° |
| 2026-05-07 14:18 | 30.39786 | -84.35754 | 72 ft | 17 kts | 179° |
| 2026-05-07 14:18 | 30.39669 | -84.35751 | 74 ft | 16 kts | 182° |
| 2026-05-07 14:18 | 30.39565 | -84.35752 | 82 ft | 14 kts | 178° |
| 2026-05-07 14:19 | 30.39477 | -84.35751 | 83 ft | 12 kts | 179° |
| 2026-05-07 14:19 | 30.39410 | -84.35720 | 83 ft | 11 kts | 114° |
| 2026-05-07 14:19 | 30.39407 | -84.35622 | 70 ft | 14 kts | 90° |
| 2026-05-07 14:19 | 30.39407 | -84.35501 | 69 ft | 16 kts | 89° |
| 2026-05-07 14:20 | 30.39409 | -84.35366 | 68 ft | 17 kts | 90° |
| 2026-05-07 14:20 | 30.39410 | -84.35229 | 68 ft | 17 kts | 89° |
| 2026-05-07 14:20 | 30.39410 | -84.35089 | 72 ft | 18 kts | 89° |
| 2026-05-07 14:20 | 30.39412 | -84.34943 | 71 ft | 18 kts | 90° |
| 2026-05-07 14:21 | 30.39413 | -84.34803 | 73 ft | 17 kts | 89° |
| 2026-05-07 14:21 | 30.39446 | -84.34717 | 72 ft | 9 kts | 11° |
| 2026-05-07 14:21 | 30.39467 | -84.34678 | 73 ft | 5 kts | 100° |
| 2026-05-07 14:21 | 30.39462 | -84.34651 | 75 ft | 0 kts | 101° |